• Join FlightAware (Why Join?)
  • Login
  • US Flag 
02:03AM EDT


 

Airport Tracker/Info


-or-


 

Live Flight TrackerFlight Track Log ✈ SWA407 ✈ 11-Apr-2013 ✈ KTPA - KBUF

Flight Track Log - Related Links

Times and Time Zones

All times are in EDT time to prevent confusion due to time zone crossing. See the SWA407 flight status page for this flight to view local times or setup timezone preferences in your user account.

Time Position Orientation Groundspeed Altitude Reporting Facility
EDT Latitude Longitude Course Direction KTS MPH feet Rate Location/Type
03:43PM 27.9667 -82.5500 180° South 152 175 800  Level Tampa TRACON
03:44PM 27.9500 -82.5500 180° South 175 201 1,400 2,040 Climbing Tampa TRACON
03:45PM 27.9000 -82.5667 196° South 207 238 3,500 2,640 Climbing Tampa TRACON
03:46PM 27.8667 -82.6167 233° Southwest 226 260 6,500 2,220 Climbing Tampa TRACON
03:48PM 28.0183 -82.6481 350° North 239 275 10,600 1,920 Climbing Jacksonville Center
03:49PM 28.1206 -82.6525 358° North 324 373 12,600 2,280 Climbing Jacksonville Center
03:50PM 28.2247 -82.6569 358° North 349 402 15,200 2,460 Climbing Jacksonville Center
03:51PM 28.3333 -82.6592 359° North 373 429 17,600 2,340 Climbing Jacksonville Center
03:52PM 28.4503 -82.6658 357° North 389 448 19,900 2,280 Climbing Jacksonville Center
03:53PM 28.5714 -82.6656 360° North 413 475 22,200 1,800 Climbing Jacksonville Center
03:54PM 28.6672 -82.6703 358° North 425 489 23,500 1,500 Climbing Jacksonville Center
03:55PM 28.8072 -82.6697 360° North 436 502 25,200 1,680 Climbing Jacksonville Center
03:56PM 28.9344 -82.6767 357° North 447 514 26,900 1,380 Climbing Jacksonville Center
03:57PM 29.0639 -82.6836 357° North 452 520 28,000 1,200 Climbing Jacksonville Center
03:58PM 29.1911 -82.6856 359° North 457 526 29,300 1,380 Climbing Jacksonville Center
03:59PM 29.3206 -82.6900 358° North 457 526 30,800 1,320 Climbing Jacksonville Center
04:00PM 29.4500 -82.6922 359° North 457 526 32,000 1,020 Climbing Jacksonville Center
04:01PM 29.5794 -82.6944 359° North 457 526 32,900 480 Climbing Jacksonville Center
04:02PM 29.7089 -82.6917 North 457 526 33,000  Climbing Jacksonville Center
04:03PM 29.8383 -82.6914 360° North 457 526 32,900 -60 Descending Jacksonville Center
04:04PM 29.9678 -82.6936 359° North 457 526 32,900 600 Level Jacksonville Center
04:05PM 30.0972 -82.6886 North 457 526 34,200 1,020 Climbing Jacksonville Center
04:06PM 30.2247 -82.6858 North 457 526 35,000 360 Climbing Jacksonville Center
04:07PM 30.3500 -82.6881 359° North 457 526 35,000 -60 Level Jacksonville Center
04:08PM 30.4772 -82.6853 North 457 526 34,900  Descending Jacksonville Center
04:09PM 30.6067 -82.6731 North 457 526 35,000  Climbing Jacksonville Center
04:10PM 30.7339 -82.6508 North 462 532 35,000  Level Jacksonville Center
04:11PM 30.8633 -82.6264 North 462 532 35,000 300 Level Jacksonville Center
04:12PM 30.9844 -82.5606 25° Northeast 468 539 35,700 780 Climbing Jacksonville Center
04:13PM 31.1031 -82.4825 29° Northeast 474 545 36,600 600 Climbing Jacksonville Center
04:14PM 31.2261 -82.4092 27° Northeast 479 551 37,000 180 Climbing Jacksonville Center
04:15PM 31.3556 -82.3939 North 470 541 37,000  Level Jacksonville Center
04:16PM 31.4806 -82.3714 North 458 527 37,000  Level Jacksonville Center
04:17PM 31.6081 -82.3558 North 458 527 37,000  Level Jacksonville Center
04:18PM 31.7353 -82.3406 North 458 527 37,000  Level Jacksonville Center
04:19PM 31.9475 -82.3158 North 458 527 37,000  Level Atlanta Center
04:20PM 32.0661 -82.3036 North 463 533 37,000  Level Atlanta Center
04:21PM 32.1911 -82.2864 North 458 527 37,000  Level Atlanta Center
04:22PM 32.3161 -82.2692 North 458 527 37,000  Level Atlanta Center
04:23PM 32.4411 -82.2544 North 458 527 37,000  Level Atlanta Center
04:24PM 32.5706 -82.2394 North 458 527 37,000  Level Atlanta Center
04:25PM 32.6975 -82.2222 North 463 533 37,000  Level Atlanta Center
04:26PM 32.8289 -82.2069 North 463 533 37,000  Level Atlanta Center
04:27PM 32.9558 -82.1919 North 463 533 37,000  Level Atlanta Center
04:28PM 33.0892 -82.1767 North 463 533 37,000  Level Atlanta Center
04:29PM 33.2206 -82.1592 North 468 539 37,000  Level Atlanta Center
04:30PM 33.3497 -82.1414 North 468 539 37,000  Level Atlanta Center
04:31PM 33.4789 -82.1261 North 468 539 37,000  Level Atlanta Center
04:32PM 33.6225 -82.1081 North 468 539 37,000  Level Atlanta Center
04:33PM 33.7536 -82.0900 North 468 539 37,000  Level Atlanta Center
04:34PM 33.8850 -82.0744 North 468 539 37,000  Level Atlanta Center
04:35PM 34.0161 -82.0589 North 463 533 37,000  Level Atlanta Center
04:36PM 34.1433 -82.0433 North 463 533 37,000  Level Atlanta Center
04:37PM 34.2725 -82.0253 North 458 527 37,000  Level Atlanta Center
04:38PM 34.3994 -82.0097 North 458 527 37,000  Level Atlanta Center
04:39PM 34.5306 -81.9939 North 458 527 37,000  Level Atlanta Center
04:40PM 34.6578 -81.9781 North 463 533 37,000  Level Atlanta Center
04:41PM 34.7867 -81.9597 North 463 533 37,000  Level Atlanta Center
04:42PM 34.9033 -81.9469 North 463 533 37,000  Level Atlanta Center
04:43PM 35.0408 -81.9306 North 458 527 37,000  Level Atlanta Center
04:44PM 35.1681 -81.9247 North 458 527 37,000 -60 Level Atlanta Center
04:45PM 35.2953 -81.9217 North 458 527 36,900  Descending Atlanta Center
04:46PM 35.4203 -81.9158 North 453 521 37,000  Climbing Atlanta Center
04:47PM 35.5369 -81.9078 North 453 521 37,000  Level Atlanta Center
04:48PM 35.6642 -81.9044 North 458 527 37,000  Level Atlanta Center
04:49PM 35.7956 -81.8958 North 465 535 37,000  Level Atlanta Center
04:50PM 35.9164 -81.8900 North 453 521 37,000  Level Atlanta Center
04:51PM 36.0456 -81.8842 North 453 521 37,000  Level Atlanta Center
04:52PM 36.1872 -81.8753 North 461 531 37,000  Level Atlanta Center
04:53PM 36.3122 -81.8692 North 451 519 37,000  Level Atlanta Center
04:54PM 36.4394 -81.8633 North 462 532 37,000  Level Atlanta Center
04:55PM 36.5686 -81.8544 North 462 532 37,000  Level Atlanta Center
04:56PM 36.7000 -81.8508 North 462 532 37,000  Level Atlanta Center
04:58PM 36.9586 -81.8378 North 474 545 37,000  Level Indianapolis Center
04:59PM 37.0911 -81.8308 North 476 548 37,000  Level Indianapolis Center
05:00PM 37.2217 -81.8247 North 472 543 37,000  Level Indianapolis Center
05:01PM 37.3558 -81.8186 North 477 549 37,000  Level Indianapolis Center
05:02PM 37.4867 -81.8131 North 472 543 37,000  Level Indianapolis Center
05:03PM 37.6394 -81.8053 North 471 542 37,000  Level Indianapolis Center
05:05PM 37.7703 -81.7992 North 471 542 37,000  Level Indianapolis Center
05:06PM 37.8878 -81.7922 North 475 547 37,000  Level Indianapolis Center
05:07PM 38.0461 -81.7861 North 474 545 37,000  Level Indianapolis Center
05:08PM 38.1789 -81.7789 North 475 547 37,000  Level Indianapolis Center
05:09PM 38.3117 -81.7711 North 475 547 37,000  Level Indianapolis Center
05:10PM 38.4347 -81.6981 25° Northeast 488 562 37,000  Level Indianapolis Center
05:11PM 38.5489 -81.5986 34° Northeast 498 573 37,000  Level Indianapolis Center
05:12PM 38.6722 -81.4925 34° Northeast 494 568 37,000  Level Indianapolis Center
05:13PM 38.7833 -81.3944 35° Northeast 487 560 37,000  Level Indianapolis Center
05:14PM 38.9028 -81.2919 34° Northeast 496 571 37,000  Level Indianapolis Center
05:15PM 39.0147 -81.1936 34° Northeast 489 563 37,000  Level Indianapolis Center
05:16PM 39.1500 -81.0756 34° Northeast 491 565 37,000  Level Indianapolis Center
05:17PM 39.2622 -80.9756 35° Northeast 490 564 37,000  Level Indianapolis Center
05:18PM 39.3744 -80.8758 34° Northeast 489 563 37,000  Level Indianapolis Center
05:19PM 39.4864 -80.7758 35° Northeast 489 563 37,000  Level Indianapolis Center
05:20PM 39.6006 -80.6753 34° Northeast 495 570 37,000  Level Indianapolis Center
05:20PM 39.6647 -80.6181 34° Northeast 490 564 37,000  Level Cleveland Center
05:21PM 39.7900 -80.5561 21° North 478 550 37,000  Level Cleveland Center
05:22PM 39.9211 -80.5128 14° North 478 550 37,000  Level Cleveland Center
05:23PM 40.0506 -80.4692 14° North 478 550 37,000  Level Cleveland Center
05:24PM 40.1797 -80.4283 14° North 478 550 37,000 -420 Level Cleveland Center
05:25PM 40.3131 -80.3844 14° North 478 550 36,200 -840 Descending Cleveland Center
05:26PM 40.4297 -80.3458 14° North 478 550 35,400 -900 Descending Cleveland Center
05:27PM 40.5608 -80.3044 13° North 473 544 34,400 -1,020 Descending Cleveland Center
05:28PM 40.6881 -80.2600 15° North 473 544 33,400 -720 Descending Cleveland Center
05:29PM 40.8025 -80.2650 358° North 449 517 33,000 -660 Descending Cleveland Center
05:30PM 40.9028 -80.3633 323° Northwest 402 463 32,100 -540 Descending Cleveland Center
05:31PM 40.9906 -80.4647 319° Northwest 402 463 32,000 -540 Descending Cleveland Center
05:32PM 41.1033 -80.5114 343° North 412 474 31,100 -960 Descending Cleveland Center
05:33PM 41.2219 -80.4258 28° Northeast 413 475 30,100 -1,020 Descending Cleveland Center
05:34PM 41.3344 -80.3261 34° Northeast 440 506 29,100 -1,020 Descending Cleveland Center
05:35PM 41.4425 -80.2258 35° Northeast 462 532 28,100 -1,020 Descending Cleveland Center
05:36PM 41.5525 -80.1308 33° Northeast 468 539 27,100 -1,080 Descending Cleveland Center
05:37PM 41.6544 -80.0356 35° Northeast 460 529 26,000 -1,080 Descending Cleveland Center
05:38PM 41.7581 -79.9431 34° Northeast 446 513 25,000 -1,020 Descending Cleveland Center
05:39PM 41.8617 -79.8528 33° Northeast 446 513 24,000 -1,080 Descending Cleveland Center
05:40PM 41.9717 -79.7536 34° Northeast 436 502 22,900 -1,800 Descending Cleveland Center
05:41PM 42.0708 -79.6600 35° Northeast 436 502 20,500 -2,220 Descending Cleveland Center
05:42PM 42.1703 -79.5692 34° Northeast 436 502 18,500 -2,040 Descending Cleveland Center
05:43PM 42.2633 -79.4833 34° Northeast 424 488 16,500 -2,280 Descending Cleveland Center
05:44PM 42.3500 -79.4061 33° Northeast 398 458 14,000 -2,700 Descending Cleveland Center
05:45PM 42.4367 -79.3283 34° Northeast 380 437 11,100 -1,860 Descending Cleveland Center
05:46PM 42.5150 -79.2564 34° Northeast 380 437 10,300 -1,080 Descending Cleveland Center
05:47PM 42.5936 -79.1872 33° Northeast 325 374 9,000 -660 Descending Cleveland Center
05:48PM 42.6489 -79.1153 44° Northeast 291 335 9,000 -480 Level Cleveland Center
05:49PM 42.7000 -79.0464 45° Northeast 264 304 8,100 -1,140 Descending Cleveland Center
05:50PM 42.7472 -78.9858 43° Northeast 255 293 6,800 -1,500 Descending Cleveland Center
05:51PM 42.8025 -78.9164 43° Northeast 247 284 5,100 -1,320 Descending Cleveland Center
05:52PM 42.8414 -78.8644 44° Northeast 217 250 4,200 -480 Descending Cleveland Center
05:54PM 42.8667 -78.7833 67° East 149 171 4,000 -120 Descending Buffalo TRACON
05:55PM 42.8167 -78.8000 194° South 176 203 4,000  Level Buffalo TRACON
05:56PM 42.7833 -78.8333 216° Southwest 171 197 4,000 -600 Level Buffalo TRACON
05:57PM 42.7833 -78.9000 270° West 197 227 2,900 -900 Descending Buffalo TRACON
05:58PM 42.8167 -78.8833 20° North 152 175 2,300 -300 Descending Buffalo TRACON
05:59PM 42.8500 -78.8500 36° Northeast 130 150 2,300  Level Buffalo TRACON